sensor_id;sensor_type;location;lat;lon;timestamp;pressure;altitude;pressure_sealevel;temperature;humidity
34197;BME280;36594;45.192;5.722;2023-03-16T00:01:38;99374.30;;;23.07;33.12
34197;BME280;36594;45.192;5.722;2023-03-16T00:04:26;99374.89;;;23.09;33.13
34197;BME280;36594;45.192;5.722;2023-03-16T00:07:15;99366.92;;;23.08;33.13
34197;BME280;36594;45.192;5.722;2023-03-16T00:10:05;99376.79;;;23.09;33.13
34197;BME280;36594;45.192;5.722;2023-03-16T00:12:55;99386.10;;;23.08;33.13
34197;BME280;36594;45.192;5.722;2023-03-16T00:15:55;99383.64;;;23.09;33.16
34197;BME280;36594;45.192;5.722;2023-03-16T00:18:44;99383.36;;;23.08;33.16
34197;BME280;36594;45.192;5.722;2023-03-16T00:21:32;99382.80;;;23.08;33.18
34197;BME280;36594;45.192;5.722;2023-03-16T00:24:22;99383.89;;;23.07;33.21
34197;BME280;36594;45.192;5.722;2023-03-16T00:27:12;99374.83;;;23.07;33.20
34197;BME280;36594;45.192;5.722;2023-03-16T00:30:01;99380.90;;;23.09;33.24
34197;BME280;36594;45.192;5.722;2023-03-16T00:32:50;99388.06;;;23.10;33.27
34197;BME280;36594;45.192;5.722;2023-03-16T00:35:40;99388.06;;;23.10;33.27
34197;BME280;36594;45.192;5.722;2023-03-16T00:38:35;99380.37;;;23.09;33.22
34197;BME280;36594;45.192;5.722;2023-03-16T00:41:24;99386.10;;;23.08;33.21
34197;BME280;36594;45.192;5.722;2023-03-16T00:44:12;99390.74;;;23.07;33.28
34197;BME280;36594;45.192;5.722;2023-03-16T00:47:01;99386.38;;;23.09;33.25
34197;BME280;36594;45.192;5.722;2023-03-16T00:49:50;99382.58;;;23.10;33.25
34197;BME280;36594;45.192;5.722;2023-03-16T00:52:38;99381.21;;;23.10;33.26
34197;BME280;36594;45.192;5.722;2023-03-16T00:55:28;99380.90;;;23.09;33.24
34197;BME280;36594;45.192;5.722;2023-03-16T00:58:16;99379.53;;;23.09;33.26
34197;BME280;36594;45.192;5.722;2023-03-16T01:01:09;99373.83;;;23.10;33.26
34197;BME280;36594;45.192;5.722;2023-03-16T01:03:58;99373.52;;;23.09;33.26
34197;BME280;36594;45.192;5.722;2023-03-16T01:06:47;99369.66;;;23.08;33.28
34197;BME280;36594;45.192;5.722;2023-03-16T01:09:36;99370.00;;;23.11;33.28
34197;BME280;36594;45.192;5.722;2023-03-16T01:12:24;99371.09;;;23.10;33.28
34197;BME280;36594;45.192;5.722;2023-03-16T01:15:12;99363.45;;;23.12;33.25
34197;BME280;36594;45.192;5.722;2023-03-16T01:18:01;99353.03;;;23.12;33.25
34197;BME280;36594;45.192;5.722;2023-03-16T01:20:50;99353.28;;;23.10;33.20
34197;BME280;36594;45.192;5.722;2023-03-16T01:23:40;99352.44;;;23.10;33.19
34197;BME280;36594;45.192;5.722;2023-03-16T01:26:32;99359.82;;;23.09;33.24
34197;BME280;36594;45.192;5.722;2023-03-16T01:29:20;99363.88;;;23.07;33.27
34197;BME280;36594;45.192;5.722;2023-03-16T01:32:10;99358.14;;;23.08;33.30
34197;BME280;36594;45.192;5.722;2023-03-16T01:34:59;99364.18;;;23.08;33.30
34197;BME280;36594;45.192;5.722;2023-03-16T01:37:48;99365.30;;;23.09;33.30
34197;BME280;36594;45.192;5.722;2023-03-16T01:40:39;99364.52;;;23.11;33.30
34197;BME280;36594;45.192;5.722;2023-03-16T01:43:31;99350.81;;;23.11;33.27
34197;BME280;36594;45.192;5.722;2023-03-16T01:46:24;99353.56;;;23.11;33.27
34197;BME280;36594;45.192;5.722;2023-03-16T01:49:16;99350.48;;;23.08;33.25
34197;BME280;36594;45.192;5.722;2023-03-16T01:52:15;99345.53;;;23.07;33.34
34197;BME280;36594;45.192;5.722;2023-03-16T01:55:02;99345.28;;;23.09;33.30
34197;BME280;36594;45.192;5.722;2023-03-16T01:57:50;99338.96;;;23.08;33.30
34197;BME280;36594;45.192;5.722;2023-03-16T02:00:40;99348.86;;;23.09;33.31
34197;BME280;36594;45.192;5.722;2023-03-16T02:03:30;99348.27;;;23.07;33.40
34197;BME280;36594;45.192;5.722;2023-03-16T02:06:22;99345.23;;;23.06;33.31
34197;BME280;36594;45.192;5.722;2023-03-16T02:09:12;99341.84;;;23.02;33.41
34197;BME280;36594;45.192;5.722;2023-03-16T02:12:03;99339.63;;;23.01;33.46
34197;BME280;36594;45.192;5.722;2023-03-16T02:14:53;99347.09;;;23.03;33.45
34197;BME280;36594;45.192;5.722;2023-03-16T02:17:43;99331.92;;;22.98;33.49
34197;BME280;36594;45.192;5.722;2023-03-16T02:20:41;99331.97;;;23.01;33.50
34197;BME280;36594;45.192;5.722;2023-03-16T02:23:29;99346.20;;;23.00;33.50
34197;BME280;36594;45.192;5.722;2023-03-16T02:26:43;99340.41;;;22.99;33.56
34197;BME280;36594;45.192;5.722;2023-03-16T02:29:45;99334.06;;;22.96;33.58
34197;BME280;36594;45.192;5.722;2023-03-16T02:32:31;99336.19;;;22.94;33.68
34197;BME280;36594;45.192;5.722;2023-03-16T02:35:20;99347.45;;;22.95;33.66
34197;BME280;36594;45.192;5.722;2023-03-16T02:38:10;99344.41;;;22.94;33.66
34197;BME280;36594;45.192;5.722;2023-03-16T02:41:11;99346.61;;;22.95;33.66
34197;BME280;36594;45.192;5.722;2023-03-16T02:44:26;99350.72;;;22.95;33.66
34197;BME280;36594;45.192;5.722;2023-03-16T02:47:15;99346.87;;;22.93;33.71
34197;BME280;36594;45.192;5.722;2023-03-16T02:50:03;99341.92;;;22.93;33.72
34197;BME280;36594;45.192;5.722;2023-03-16T02:52:52;99335.32;;;22.91;33.74
34197;BME280;36594;45.192;5.722;2023-03-16T02:55:40;99340.30;;;22.94;33.72
34197;BME280;36594;45.192;5.722;2023-03-16T02:58:30;99340.30;;;22.94;33.71
34197;BME280;36594;45.192;5.722;2023-03-16T03:01:20;99336.16;;;22.92;33.78
34197;BME280;36594;45.192;5.722;2023-03-16T03:04:09;99332.58;;;22.91;33.76
34197;BME280;36594;45.192;5.722;2023-03-16T03:06:58;99331.16;;;22.89;33.67
34197;BME280;36594;45.192;5.722;2023-03-16T03:09:48;99327.38;;;22.92;33.71
34197;BME280;36594;45.192;5.722;2023-03-16T03:12:38;99326.58;;;22.92;33.71
34197;BME280;36594;45.192;5.722;2023-03-16T03:15:28;99326.20;;;22.88;33.78
34197;BME280;36594;45.192;5.722;2023-03-16T03:18:19;99335.54;;;22.90;33.78
34197;BME280;36594;45.192;5.722;2023-03-16T03:21:07;99329.78;;;22.89;33.80
34197;BME280;36594;45.192;5.722;2023-03-16T03:23:56;99325.73;;;22.91;33.76
34197;BME280;36594;45.192;5.722;2023-03-16T03:26:44;99313.41;;;22.91;33.76
34197;BME280;36594;45.192;5.722;2023-03-16T03:29:34;99318.89;;;22.91;33.74
34197;BME280;36594;45.192;5.722;2023-03-16T03:32:22;99319.41;;;22.91;33.78
34197;BME280;36594;45.192;5.722;2023-03-16T03:35:12;99319.36;;;22.88;33.81
34197;BME280;36594;45.192;5.722;2023-03-16T03:38:02;99313.63;;;22.90;33.81
34197;BME280;36594;45.192;5.722;2023-03-16T03:40:51;99321.84;;;22.90;33.82
34197;BME280;36594;45.192;5.722;2023-03-16T03:43:40;99315.25;;;22.88;33.80
34197;BME280;36594;45.192;5.722;2023-03-16T03:46:30;99309.52;;;22.90;33.79
34197;BME280;36594;45.192;5.722;2023-03-16T03:49:19;99316.09;;;22.89;33.77
34197;BME280;36594;45.192;5.722;2023-03-16T03:52:08;99324.84;;;22.88;33.78
34197;BME280;36594;45.192;5.722;2023-03-16T03:54:56;99318.77;;;22.86;33.81
34197;BME280;36594;45.192;5.722;2023-03-16T03:57:45;99324.53;;;22.87;33.81
34197;BME280;36594;45.192;5.722;2023-03-16T04:00:33;99317.67;;;22.87;33.82
34197;BME280;36594;45.192;5.722;2023-03-16T04:03:22;99312.98;;;22.85;33.81
34197;BME280;36594;45.192;5.722;2023-03-16T04:06:11;99314.13;;;22.87;33.80
34197;BME280;36594;45.192;5.722;2023-03-16T04:08:59;99309.72;;;22.86;33.80
34197;BME280;36594;45.192;5.722;2023-03-16T04:11:48;99311.92;;;22.86;33.85
34197;BME280;36594;45.192;5.722;2023-03-16T04:14:37;99315.19;;;22.86;33.88
34197;BME280;36594;45.192;5.722;2023-03-16T04:17:27;99317.41;;;22.86;33.90
34197;BME280;36594;45.192;5.722;2023-03-16T04:20:18;99321.20;;;22.85;33.87
34197;BME280;36594;45.192;5.722;2023-03-16T04:23:07;99319.83;;;22.85;33.92
34197;BME280;36594;45.192;5.722;2023-03-16T04:25:58;99315.97;;;22.84;33.87
34197;BME280;36594;45.192;5.722;2023-03-16T04:28:47;99319.77;;;22.83;33.88
34197;BME280;36594;45.192;5.722;2023-03-16T04:31:37;99320.92;;;22.84;33.91
34197;BME280;36594;45.192;5.722;2023-03-16T04:34:27;99321.45;;;22.84;33.93
34197;BME280;36594;45.192;5.722;2023-03-16T04:37:17;99323.66;;;22.84;33.88
34197;BME280;36594;45.192;5.722;2023-03-16T04:40:07;99332.99;;;22.86;33.88
34197;BME280;36594;45.192;5.722;2023-03-16T04:42:57;99325.31;;;22.85;33.87
34197;BME280;36594;45.192;5.722;2023-03-16T04:45:46;99307.36;;;22.78;33.91
34197;BME280;36594;45.192;5.722;2023-03-16T04:48:35;99323.59;;;22.82;33.89
34197;BME280;36594;45.192;5.722;2023-03-16T04:51:25;99330.98;;;22.81;33.93
34197;BME280;36594;45.192;5.722;2023-03-16T04:54:18;99328.77;;;22.81;33.89
34197;BME280;36594;45.192;5.722;2023-03-16T04:57:08;99328.55;;;22.82;33.89
34197;BME280;36594;45.192;5.722;2023-03-16T05:00:00;99332.34;;;22.81;33.92
34197;BME280;36594;45.192;5.722;2023-03-16T05:02:52;99335.09;;;22.81;33.93
34197;BME280;36594;45.192;5.722;2023-03-16T05:05:42;99328.23;;;22.81;33.94
34197;BME280;36594;45.192;5.722;2023-03-16T05:08:34;99325.19;;;22.80;33.96
34197;BME280;36594;45.192;5.722;2023-03-16T05:11:24;99324.38;;;22.80;34.00
34197;BME280;36594;45.192;5.722;2023-03-16T05:14:14;99323.02;;;22.80;33.97
34197;BME280;36594;45.192;5.722;2023-03-16T05:17:07;99319.72;;;22.80;33.97
34197;BME280;36594;45.192;5.722;2023-03-16T05:19:55;99315.91;;;22.81;33.98
34197;BME280;36594;45.192;5.722;2023-03-16T05:22:45;99318.66;;;22.81;33.95
34197;BME280;36594;45.192;5.722;2023-03-16T05:25:36;99318.34;;;22.80;33.95
34197;BME280;36594;45.192;5.722;2023-03-16T05:28:28;99312.12;;;22.82;33.75
34197;BME280;36594;45.192;5.722;2023-03-16T05:31:19;99316.75;;;22.82;33.57
34197;BME280;36594;45.192;5.722;2023-03-16T05:34:08;99316.75;;;22.82;33.57
34197;BME280;36594;45.192;5.722;2023-03-16T05:36:59;99324.38;;;22.80;34.06
34197;BME280;36594;45.192;5.722;2023-03-16T05:39:48;99326.34;;;22.82;34.07
34197;BME280;36594;45.192;5.722;2023-03-16T05:42:36;99316.97;;;22.80;34.10
34197;BME280;36594;45.192;5.722;2023-03-16T05:45:24;99321.92;;;22.81;34.08
34197;BME280;36594;45.192;5.722;2023-03-16T05:48:18;99323.55;;;22.79;34.04
34197;BME280;36594;45.192;5.722;2023-03-16T05:51:09;99325.44;;;22.79;34.12
34197;BME280;36594;45.192;5.722;2023-03-16T05:53:57;99330.08;;;22.78;34.15
34197;BME280;36594;45.192;5.722;2023-03-16T05:56:47;99329.55;;;22.79;34.13
34197;BME280;36594;45.192;5.722;2023-03-16T05:59:36;99333.66;;;22.79;34.09
34197;BME280;36594;45.192;5.722;2023-03-16T06:02:24;99325.91;;;22.76;34.11
34197;BME280;36594;45.192;5.722;2023-03-16T06:05:13;99326.81;;;22.79;34.17
34197;BME280;36594;45.192;5.722;2023-03-16T06:08:03;99328.43;;;22.77;34.22
34197;BME280;36594;45.192;5.722;2023-03-16T06:10:52;99339.38;;;22.77;34.21
34197;BME280;36594;45.192;5.722;2023-03-16T06:13:41;99336.64;;;22.77;34.23
34197;BME280;36594;45.192;5.722;2023-03-16T06:16:30;99342.66;;;22.77;34.20
34197;BME280;36594;45.192;5.722;2023-03-16T06:19:18;99336.27;;;22.74;34.26
34197;BME280;36594;45.192;5.722;2023-03-16T06:22:09;99345.70;;;22.78;34.20
34197;BME280;36594;45.192;5.722;2023-03-16T06:24:58;99342.91;;;22.75;34.25
34197;BME280;36594;45.192;5.722;2023-03-16T06:27:47;99339.85;;;22.74;34.24
34197;BME280;36594;45.192;5.722;2023-03-16T06:30:37;99343.18;;;22.76;34.23
34197;BME280;36594;45.192;5.722;2023-03-16T06:33:25;99352.17;;;22.74;33.45
34197;BME280;36594;45.192;5.722;2023-03-16T06:36:13;99347.23;;;22.74;32.75
34197;BME280;36594;45.192;5.722;2023-03-16T06:39:04;99349.69;;;22.73;31.49
34197;BME280;36594;45.192;5.722;2023-03-16T06:42:00;99349.16;;;22.73;31.77
34197;BME280;36594;45.192;5.722;2023-03-16T06:44:50;99359.98;;;22.68;31.78
34197;BME280;36594;45.192;5.722;2023-03-16T06:47:39;99353.08;;;22.65;30.68
34197;BME280;36594;45.192;5.722;2023-03-16T06:50:27;99356.16;;;22.69;30.58
34197;BME280;36594;45.192;5.722;2023-03-16T06:53:16;99355.38;;;22.71;30.71
34197;BME280;36594;45.192;5.722;2023-03-16T06:56:06;99355.38;;;22.71;30.96
34197;BME280;36594;45.192;5.722;2023-03-16T06:58:56;99355.05;;;22.67;31.65
34197;BME280;36594;45.192;5.722;2023-03-16T07:01:44;99354.58;;;22.71;31.57
34197;BME280;36594;45.192;5.722;2023-03-16T07:04:33;99358.69;;;22.71;31.66
34197;BME280;36594;45.192;5.722;2023-03-16T07:07:22;99358.62;;;22.68;32.32
34197;BME280;36594;45.192;5.722;2023-03-16T07:10:15;99359.48;;;22.71;32.47
34197;BME280;36594;45.192;5.722;2023-03-16T07:13:05;99362.78;;;22.71;32.75
34197;BME280;36594;45.192;5.722;2023-03-16T07:15:53;99364.22;;;22.73;32.93
34197;BME280;36594;45.192;5.722;2023-03-16T07:18:42;99363.44;;;22.75;32.92
34197;BME280;36594;45.192;5.722;2023-03-16T07:21:32;99360.70;;;22.75;32.94
34197;BME280;36594;45.192;5.722;2023-03-16T07:24:24;99359.92;;;22.77;33.04
34197;BME280;36594;45.192;5.722;2023-03-16T07:27:13;99356.41;;;22.79;33.36
34197;BME280;36594;45.192;5.722;2023-03-16T07:30:04;99356.22;;;22.83;33.39
34197;BME280;36594;45.192;5.722;2023-03-16T07:32:55;99361.10;;;22.81;33.38
34197;BME280;36594;45.192;5.722;2023-03-16T07:35:43;99354.72;;;22.78;33.30
34197;BME280;36594;45.192;5.722;2023-03-16T07:38:33;99359.08;;;22.77;33.32
34197;BME280;36594;45.192;5.722;2023-03-16T07:41:22;99355.50;;;22.76;33.77
34197;BME280;36594;45.192;5.722;2023-03-16T07:44:11;99357.19;;;22.77;33.99
34197;BME280;36594;45.192;5.722;2023-03-16T07:47:01;99356.09;;;22.78;34.19
34197;BME280;36594;45.192;5.722;2023-03-16T07:49:49;99346.23;;;22.77;34.30
34197;BME280;36594;45.192;5.722;2023-03-16T07:52:39;99348.97;;;22.77;34.57
34197;BME280;36594;45.192;5.722;2023-03-16T07:55:27;99352.77;;;22.76;34.81
34197;BME280;36594;45.192;5.722;2023-03-16T07:58:18;99352.30;;;22.79;34.93
34197;BME280;36594;45.192;5.722;2023-03-16T08:01:07;99351.18;;;22.78;34.93
34197;BME280;36594;45.192;5.722;2023-03-16T08:03:58;99348.97;;;22.77;35.07
34197;BME280;36594;45.192;5.722;2023-03-16T08:06:46;99345.39;;;22.77;35.08
34197;BME280;36594;45.192;5.722;2023-03-16T08:09:35;99344.02;;;22.77;35.08
34197;BME280;36594;45.192;5.722;2023-03-16T08:12:24;99338.08;;;22.80;35.10
34197;BME280;36594;45.192;5.722;2023-03-16T08:15:13;99333.91;;;22.77;35.21
34197;BME280;36594;45.192;5.722;2023-03-16T08:18:03;99340.44;;;22.76;35.16
34197;BME280;36594;45.192;5.722;2023-03-16T08:20:54;99336.12;;;22.78;35.21
34197;BME280;36594;45.192;5.722;2023-03-16T08:23:43;99333.06;;;22.77;35.21
34197;BME280;36594;45.192;5.722;2023-03-16T08:26:32;99330.86;;;22.76;35.17
34197;BME280;36594;45.192;5.722;2023-03-16T08:29:24;99337.17;;;22.77;35.23
34197;BME280;36594;45.192;5.722;2023-03-16T08:32:13;99331.17;;;22.77;35.21
34197;BME280;36594;45.192;5.722;2023-03-16T08:35:04;99326.47;;;22.75;35.27
34197;BME280;36594;45.192;5.722;2023-03-16T08:37:53;99331.17;;;22.77;35.26
34197;BME280;36594;45.192;5.722;2023-03-16T08:40:43;99329.27;;;22.78;35.22
34197;BME280;36594;45.192;5.722;2023-03-16T08:43:36;99315.40;;;22.70;35.21
34197;BME280;36594;45.192;5.722;2023-03-16T08:46:25;99324.85;;;22.77;35.24
34197;BME280;36594;45.192;5.722;2023-03-16T08:49:15;99330.02;;;22.76;35.24
34197;BME280;36594;45.192;5.722;2023-03-16T08:52:07;99329.48;;;22.76;35.23
34197;BME280;36594;45.192;5.722;2023-03-16T08:54:57;99324.02;;;22.76;35.29
34197;BME280;36594;45.192;5.722;2023-03-16T08:57:45;99325.69;;;22.77;35.25
34197;BME280;36594;45.192;5.722;2023-03-16T09:00:35;99318.00;;;22.77;35.25
34197;BME280;36594;45.192;5.722;2023-03-16T09:03:24;99319.62;;;22.75;35.25
34197;BME280;36594;45.192;5.722;2023-03-16T09:06:15;99325.69;;;22.77;35.26
34197;BME280;36594;45.192;5.722;2023-03-16T09:09:04;99323.80;;;22.78;35.24
34197;BME280;36594;45.192;5.722;2023-03-16T09:11:53;99324.07;;;22.79;35.22
34197;BME280;36594;45.192;5.722;2023-03-16T09:14:41;99323.55;;;22.79;35.21
34197;BME280;36594;45.192;5.722;2023-03-16T09:17:29;99324.59;;;22.78;35.22
34197;BME280;36594;45.192;5.722;2023-03-16T09:20:18;99322.95;;;22.77;35.20
34197;BME280;36594;45.192;5.722;2023-03-16T09:23:07;99322.11;;;22.77;35.19
34197;BME280;36594;45.192;5.722;2023-03-16T09:26:00;99328.70;;;22.78;35.17
34197;BME280;36594;45.192;5.722;2023-03-16T09:28:49;99322.45;;;22.80;35.17
34197;BME280;36594;45.192;5.722;2023-03-16T09:31:37;99318.34;;;22.80;35.19
34197;BME280;36594;45.192;5.722;2023-03-16T09:34:25;99315.86;;;22.79;35.18
34197;BME280;36594;45.192;5.722;2023-03-16T09:37:14;99312.59;;;22.79;35.17
34197;BME280;36594;45.192;5.722;2023-03-16T09:40:04;99306.80;;;22.78;35.13
34197;BME280;36594;45.192;5.722;2023-03-16T09:49:15;99301.83;;;22.75;35.17
34197;BME280;36594;45.192;5.722;2023-03-16T09:55:06;99288.91;;;22.73;35.20
34197;BME280;36594;45.192;5.722;2023-03-16T09:57:55;99286.77;;;22.75;35.17
34197;BME280;36594;45.192;5.722;2023-03-16T10:04:22;99269.83;;;22.78;35.10
34197;BME280;36594;45.192;5.722;2023-03-16T10:07:41;99268.97;;;22.75;35.15
34197;BME280;36594;45.192;5.722;2023-03-16T10:13:23;99264.86;;;22.75;35.13
34197;BME280;36594;45.192;5.722;2023-03-16T10:16:29;99258.80;;;22.73;35.14
34197;BME280;36594;45.192;5.722;2023-03-16T10:22:23;99250.33;;;22.75;35.10
34197;BME280;36594;45.192;5.722;2023-03-16T10:28:20;99236.89;;;22.73;35.11
34197;BME280;36594;45.192;5.722;2023-03-16T10:31:10;99230.32;;;22.74;35.08
34197;BME280;36594;45.192;5.722;2023-03-16T10:34:03;99225.16;;;22.75;35.08
34197;BME280;36594;45.192;5.722;2023-03-16T10:36:52;99224.59;;;22.76;35.05
34197;BME280;36594;45.192;5.722;2023-03-16T10:39:41;99223.28;;;22.78;35.03
34197;BME280;36594;45.192;5.722;2023-03-16T10:42:30;99207.69;;;22.79;35.04
34197;BME280;36594;45.192;5.722;2023-03-16T10:45:24;99202.20;;;22.79;35.04
34197;BME280;36594;45.192;5.722;2023-03-16T10:48:19;99201.95;;;22.80;34.94
34197;BME280;36594;45.192;5.722;2023-03-16T10:51:15;99202.80;;;22.81;34.99
34197;BME280;36594;45.192;5.722;2023-03-16T10:54:15;99200.59;;;22.80;34.99
34197;BME280;36594;45.192;5.722;2023-03-16T10:57:23;99184.89;;;22.76;34.81
34197;BME280;36594;45.192;5.722;2023-03-16T11:00:14;99184.89;;;22.76;34.81
34197;BME280;36594;45.192;5.722;2023-03-16T11:03:41;99190.42;;;22.78;34.97
34197;BME280;36594;45.192;5.722;2023-03-16T11:06:04;99186.31;;;22.78;34.99
34197;BME280;36594;45.192;5.722;2023-03-16T11:08:53;99182.20;;;22.78;34.99
34197;BME280;36594;45.192;5.722;2023-03-16T11:11:48;99183.63;;;22.81;34.94
34197;BME280;36594;45.192;5.722;2023-03-16T11:14:36;99177.62;;;22.81;34.87
34197;BME280;36594;45.192;5.722;2023-03-16T11:20:25;99178.73;;;22.83;34.89
34197;BME280;36594;45.192;5.722;2023-03-16T11:23:16;99171.55;;;22.79;34.94
34197;BME280;36594;45.192;5.722;2023-03-16T11:26:09;99173.51;;;22.81;34.91
34197;BME280;36594;45.192;5.722;2023-03-16T11:28:59;99170.52;;;22.83;34.88
34197;BME280;36594;45.192;5.722;2023-03-16T11:31:52;99170.30;;;22.84;34.84
34197;BME280;36594;45.192;5.722;2023-03-16T11:34:40;99153.45;;;22.78;34.85
34197;BME280;36594;45.192;5.722;2023-03-16T11:37:41;99153.17;;;22.77;34.85
34197;BME280;36594;45.192;5.722;2023-03-16T11:46:40;99162.86;;;22.82;34.83
34197;BME280;36594;45.192;5.722;2023-03-16T11:53:23;99154.03;;;22.80;34.88
34197;BME280;36594;45.192;5.722;2023-03-16T11:55:43;99148.02;;;22.81;34.86
34197;BME280;36594;45.192;5.722;2023-03-16T12:01:50;99151.60;;;22.81;34.83
34197;BME280;36594;45.192;5.722;2023-03-16T12:04:43;99148.81;;;22.79;34.87
34197;BME280;36594;45.192;5.722;2023-03-16T12:10:52;99138.97;;;22.80;34.83
34197;BME280;36594;45.192;5.722;2023-03-16T12:13:56;99140.59;;;22.79;34.84
34197;BME280;36594;45.192;5.722;2023-03-16T12:17:22;99138.70;;;22.79;34.84
34197;BME280;36594;45.192;5.722;2023-03-16T12:20:03;99127.74;;;22.79;34.82
34197;BME280;36594;45.192;5.722;2023-03-16T12:22:57;99131.55;;;22.78;34.80
34197;BME280;36594;45.192;5.722;2023-03-16T12:25:47;99123.11;;;22.80;34.79
34197;BME280;36594;45.192;5.722;2023-03-16T12:28:37;99120.89;;;22.79;34.78
34197;BME280;36594;45.192;5.722;2023-03-16T12:34:45;99103.98;;;22.82;34.72
34197;BME280;36594;45.192;5.722;2023-03-16T12:37:43;99103.15;;;22.82;34.71
34197;BME280;36594;45.192;5.722;2023-03-16T12:40:41;99102.31;;;22.81;34.68
34197;BME280;36594;45.192;5.722;2023-03-16T12:43:40;99095.47;;;22.81;34.71
34197;BME280;36594;45.192;5.722;2023-03-16T12:49:24;99083.98;;;22.82;34.68
34197;BME280;36594;45.192;5.722;2023-03-16T12:52:15;99080.98;;;22.83;34.64
34197;BME280;36594;45.192;5.722;2023-03-16T12:55:15;99080.45;;;22.84;34.63
34197;BME280;36594;45.192;5.722;2023-03-16T12:58:06;99073.91;;;22.85;34.62
34197;BME280;36594;45.192;5.722;2023-03-16T13:00:57;99075.28;;;22.85;34.62
34197;BME280;36594;45.192;5.722;2023-03-16T13:03:48;99069.23;;;22.85;34.56
34197;BME280;36594;45.192;5.722;2023-03-16T13:06:40;99065.39;;;22.84;34.56
34197;BME280;36594;45.192;5.722;2023-03-16T13:09:28;99062.17;;;22.87;34.55
34197;BME280;36594;45.192;5.722;2023-03-16T13:12:29;99054.48;;;22.86;34.53
34197;BME280;36594;45.192;5.722;2023-03-16T13:15:24;99052.02;;;22.87;34.51
34197;BME280;36594;45.192;5.722;2023-03-16T13:21:18;99045.16;;;22.85;34.51
34197;BME280;36594;45.192;5.722;2023-03-16T13:27:32;99042.16;;;22.86;34.53
34197;BME280;36594;45.192;5.722;2023-03-16T13:30:29;99036.38;;;22.85;34.49
34197;BME280;36594;45.192;5.722;2023-03-16T13:33:22;99032.00;;;22.84;34.50
34197;BME280;36594;45.192;5.722;2023-03-16T13:36:13;99025.68;;;22.84;34.51
34197;BME280;36594;45.192;5.722;2023-03-16T13:39:23;99018.00;;;22.83;34.52
34197;BME280;36594;45.192;5.722;2023-03-16T13:42:11;99013.41;;;22.86;34.45
34197;BME280;36594;45.192;5.722;2023-03-16T13:44:55;99012.03;;;22.86;34.42
34197;BME280;36594;45.192;5.722;2023-03-16T13:47:44;99000.45;;;22.82;34.43
34197;BME280;36594;45.192;5.722;2023-03-16T13:50:34;99001.08;;;22.86;34.40
34197;BME280;36594;45.192;5.722;2023-03-16T13:53:29;98993.44;;;22.88;34.41
34197;BME280;36594;45.192;5.722;2023-03-16T13:56:25;98990.70;;;22.88;34.37
34197;BME280;36594;45.192;5.722;2023-03-16T13:59:16;98987.96;;;22.88;34.34
34197;BME280;36594;45.192;5.722;2023-03-16T14:02:14;98987.70;;;22.90;34.35
34197;BME280;36594;45.192;5.722;2023-03-16T14:05:08;98988.54;;;22.90;34.33
34197;BME280;36594;45.192;5.722;2023-03-16T14:07:52;98992.91;;;22.89;34.34
34197;BME280;36594;45.192;5.722;2023-03-16T14:10:41;98989.64;;;22.89;34.32
34197;BME280;36594;45.192;5.722;2023-03-16T14:13:33;98983.86;;;22.88;34.30
34197;BME280;36594;45.192;5.722;2023-03-16T14:16:27;98988.27;;;22.89;34.30
34197;BME280;36594;45.192;5.722;2023-03-16T14:19:20;98987.47;;;22.91;34.30
34197;BME280;36594;45.192;5.722;2023-03-16T14:22:14;98982.00;;;22.91;34.27
34197;BME280;36594;45.192;5.722;2023-03-16T14:25:04;98980.90;;;22.92;34.29
34197;BME280;36594;45.192;5.722;2023-03-16T14:28:01;98984.73;;;22.91;34.25
34197;BME280;36594;45.192;5.722;2023-03-16T14:30:52;98981.69;;;22.90;34.29
34197;BME280;36594;45.192;5.722;2023-03-16T14:33:42;98978.42;;;22.91;34.26
34197;BME280;36594;45.192;5.722;2023-03-16T14:36:37;98978.12;;;22.90;34.28
34197;BME280;36594;45.192;5.722;2023-03-16T14:39:27;98977.09;;;22.93;34.21
34197;BME280;36594;45.192;5.722;2023-03-16T14:42:25;98973.78;;;22.91;34.22
34197;BME280;36594;45.192;5.722;2023-03-16T14:45:11;98973.26;;;22.94;34.18
34197;BME280;36594;45.192;5.722;2023-03-16T14:48:11;98975.73;;;22.93;34.17
34197;BME280;36594;45.192;5.722;2023-03-16T14:50:54;98971.36;;;22.95;34.16
34197;BME280;36594;45.192;5.722;2023-03-16T14:53:43;98969.45;;;22.95;34.13
34197;BME280;36594;45.192;5.722;2023-03-16T14:56:33;98970.83;;;22.95;34.11
34197;BME280;36594;45.192;5.722;2023-03-16T14:59:22;98965.66;;;22.96;34.10
34197;BME280;36594;45.192;5.722;2023-03-16T15:02:16;98971.41;;;22.97;34.11
34197;BME280;36594;45.192;5.722;2023-03-16T15:05:07;98965.13;;;22.99;34.06
34197;BME280;36594;45.192;5.722;2023-03-16T15:07:56;98963.98;;;22.95;34.08
34197;BME280;36594;45.192;5.722;2023-03-16T15:10:45;98967.34;;;23.00;34.05
34197;BME280;36594;45.192;5.722;2023-03-16T15:13:33;98962.39;;;22.99;34.06
34197;BME280;36594;45.192;5.722;2023-03-16T15:16:29;98962.39;;;22.99;34.04
34197;BME280;36594;45.192;5.722;2023-03-16T15:19:18;98962.92;;;22.99;34.06
34197;BME280;36594;45.192;5.722;2023-03-16T15:22:09;98961.86;;;23.00;34.03
34197;BME280;36594;45.192;5.722;2023-03-16T15:25:49;98959.66;;;22.99;34.03
34197;BME280;36594;45.192;5.722;2023-03-16T15:27:51;98953.95;;;23.01;33.99
34197;BME280;36594;45.192;5.722;2023-03-16T15:30:40;98949.27;;;23.01;33.99
34197;BME280;36594;45.192;5.722;2023-03-16T15:33:29;98946.53;;;23.01;33.99
34197;BME280;36594;45.192;5.722;2023-03-16T15:36:20;98949.05;;;23.03;33.96
34197;BME280;36594;45.192;5.722;2023-03-16T15:39:19;98941.66;;;23.03;33.94
34197;BME280;36594;45.192;5.722;2023-03-16T15:42:17;98938.92;;;23.03;33.95
34197;BME280;36594;45.192;5.722;2023-03-16T15:45:00;98936.94;;;23.01;33.99
34197;BME280;36594;45.192;5.722;2023-03-16T15:47:50;98936.14;;;23.01;34.02
34197;BME280;36594;45.192;5.722;2023-03-16T15:50:50;98939.98;;;23.02;34.02
34197;BME280;36594;45.192;5.722;2023-03-16T15:53:38;98934.25;;;23.04;33.95
34197;BME280;36594;45.192;5.722;2023-03-16T15:56:30;98928.19;;;23.02;33.99
34197;BME280;36594;45.192;5.722;2023-03-16T15:59:19;98930.36;;;23.00;34.01